x

Lake St Clair (45147) Wave Buoy

4:00am - Wed 22nd Oct 2014 All times are CDT. -5 hours from GMT.

  • Sig Wave height 1.6ft
  • Peak Period 3s
  • Wind
    13mph, 18mph gusts
  • Air Temp 47°f
  • Sea Pressure 1023mb
  • Lake St Clair
  • Lake St Clair

More Historic Weather Station data

Upgrade to MSW Pro to gain access to the past 30 days of data for over 8000 Wavebouys and Weather Stations around the globe.

Join Pro

Comparision Forecast

View Surf forecast
   
Wed 10/22 4:00am 1.6ft 3s 13 18 mph 1023mb 47f
3:00am 1.6ft  -  16 20 mph 1022.7mb 47f
2:00am 1.6ft  -  13 16 mph 1022.4mb 48f
1:00am 2ft 3s 18 22 mph 1022.2mb 48f
12:00am 1.3ft 3s 16 22 mph 1022.2mb 48f
Tue 10/21 11:00pm 2ft 3s 18 22 mph 1022.2mb 47f
10:00pm 2.5ft 3s 22 25 mph 1021.8mb 47f
8:00pm 2.5ft 4s 25 31 mph 1020.6mb 47f
7:00pm 2.5ft  -  27 31 mph 1020mb 47f
6:00pm 3ft 4s 27 34 mph 1019.3mb 47f
5:00pm 2.5ft 4s 25 31 mph 1018.7mb 47f
4:00pm 3ft  -  25 31 mph 1018.1mb 47f
3:00pm 2.5ft 4s 25 34 mph 1017.4mb 47f
2:00pm 2.5ft  -  27 34 mph 1016.7mb 48f
1:00pm  -   -  25
mph
- -
12:00pm 2.5ft  -  25 29 mph 1016.3mb 48f
11:00am 2.5ft  -  22 29 mph 1015.9mb 48f
10:00am 2.5ft 3s 25 29 mph 1015.5mb 49f
9:00am 2.5ft 3s 22 27 mph 1014.9mb 49f
8:00am 2.5ft 3s 22 27 mph 1014.1mb 49f
7:00am  -   -  20
mph
1013mb 50f
6:00am 1.6ft 3s 16 22 mph 1012.4mb 49f
5:00am 1.6ft 3s 18 20 mph 1011.8mb 50f
4:00am 1.6ft 3s 16 20 mph 1011.4mb 51f
3:00am 2ft  -  16
mph
1011.4mb 50f
2:00am 1.6ft 3s 16 20 mph 1011.2mb 51f
1:00am 1.6ft 3s 18 22 mph 1010.7mb 52f
12:00am 1.6ft  -  18 22 mph 1010.8mb 52f
Mon 10/20 11:00pm 1.3ft 2s 18 20 mph 1010.7mb 53f
10:00pm 0.3ft  -  11 13 mph 1010.3mb 55f
9:00pm 0.3ft  -  7
mph
1010mb 55f
8:00pm 0.3ft 2s 7 9 mph 1009.7mb 55f
7:00pm 0.3ft  -  4 7 mph 1009.5mb 55f
6:00pm 0.3ft  -  2
mph
1009mb 55f
5:00pm 0.3ft  -  2
mph
1008.5mb 55f
4:00pm 0.7ft 2s 4
mph
1008.3mb 55f
3:00pm 1ft 3s 9 11 mph 1008.4mb 55f
2:00pm 1ft 3s 9 11 mph 1008.2mb 55f
1:00pm 1.3ft 3s 13 16 mph 1008.7mb 55f
12:00pm 1.6ft 3s 13 16 mph 1009.5mb 53f
11:00am 2ft 3s 16 20 mph 1010mb 53f
10:00am 2ft 3s 18 22 mph 1010.5mb 52f
9:00am 1.6ft 3s 18 20 mph 1010.9mb 51f
8:00am 2ft 3s 18 22 mph 1011mb 51f
7:00am 1.6ft  -  18 22 mph 1011mb 51f
6:00am 1.6ft 3s 18 22 mph 1011.7mb 51f
5:00am 2ft 3s 16 18 mph 1012.1mb 51f
4:00am 2ft  -  18 22 mph 1012.5mb 52f
3:00am 1.6ft 3s 18 20 mph 1012.9mb 52f
2:00am 1.3ft 3s 16 18 mph 1013.7mb 52f
1:00am 1.3ft 3s 13 18 mph 1014.6mb 52f
12:00am 1ft 2s 11 16 mph 1014.8mb 51f
Sun 10/19 10:00pm 1.6ft 3s 16 18 mph 1015.4mb 51f
9:00pm 1.6ft  -  16 18 mph 1015.9mb 51f
8:00pm 1.3ft 3s 18 20 mph 1016.4mb 51f
7:00pm 1.6ft 3s 16 18 mph 1017.1mb 51f
6:00pm 1.3ft  -  13 18 mph 1017.5mb 51f
5:00pm 1ft 2s 11 16 mph 1018mb 51f
4:00pm 0.7ft 2s 11 13 mph 1018.6mb 50f
3:00pm 1ft 2s 9 13 mph 1019.2mb 49f
2:00pm 1ft 2s 9 13 mph 1020.1mb 47f
1:00pm 0.7ft  -  11 13 mph 1020.9mb 46f
12:00pm 0.7ft 2s 7 11 mph 1022.1mb 44f
11:00am 0.7ft 2s 7 9 mph 1022.3mb 42f
10:00am 1ft 2s 9 11 mph 1022.3mb 42f
9:00am 1.6ft 3s 9 13 mph 1021.9mb 41f
8:00am 1.3ft 3s 13 16 mph 1021.9mb 41f
7:00am 1.6ft 3s 13 18 mph 1021.5mb 42f
6:00am 1.3ft 3s 13 18 mph 1021mb 42f
5:00am 1.6ft 3s 16 20 mph 1020.7mb 42f
4:00am 1.6ft  -  13 20 mph 1020.4mb 43f
3:00am 1.6ft  -  16 20 mph 1019.9mb 44f
2:00am 1.6ft 3s 16 20 mph 1019.6mb 45f
1:00am 1.6ft  -  16 20 mph 1019.5mb 46f
12:00am 1.3ft 2s 16 22 mph 1019mb 46f
Sat 10/18 11:00pm 1.3ft 3s 13 18 mph 1018.8mb 47f
10:00pm 2ft  -  18 20 mph 1018.7mb 47f
9:00pm 2ft 3s 20 27 mph 1018.4mb 47f
8:00pm 2ft  -  18 22 mph 1018mb 46f
7:00pm 2ft 3s 18 22 mph 1017mb 48f
6:00pm 2ft  -  18 22 mph 1016.1mb 48f
5:00pm 2.5ft 3s 20 22 mph 1015.6mb 48f
4:00pm 2ft 3s 18 22 mph 1014.6mb 48f
3:00pm 2.5ft 3s 20 25 mph 1014mb 49f
2:00pm 2.5ft 3s 22
mph
1013.4mb 49f
1:00pm 2.5ft 3s 22 29 mph 1012.8mb 49f
12:00pm 2.5ft 3s 20 27 mph 1012.2mb 48f
11:00am 2.5ft 3s 22 27 mph 1011.2mb 48f